Long Island Mac Arthur Airport
KISP : rendu visible

Aérodrome :











RETROUVEZ-NOUS SUR...

 
LOGIN :

S'inscrire | Disclaimer

   EN    FR    IT 

 









Légende :    VFR   VFR Marginal   IFR   IFR Intensif   IFR Très Intensif
Visi : 
Plafond : 
>= 8 km
>= 3000ft
5 à 8 km
1000 à 3000 ft
1500m à 5 km
500 à 1000 ft
800 à 1500m
200 à 500 ft
< 800m
< 200 ft
Symboles :   Orages  Brouillard  Fortes neiges  Fortes précipitations  Vent > 20 kt






- Altitude de l'aérodrome : 99 ft
- Code IATA : ISP


KISP - Long Island Mac Arthur

DERNIER METAR :
  • 202356Z 34013KT 10SM OVC046 06/M02 A3002 RMK AO2 SLP165 60000 T00561017 10067 20056 53023

METARs EXPIRÉS :
  • 202256Z 35012KT 10SM BKN045 OVC250 06/M01 A2999 RMK AO2 SLP157 T00561011
  • 202156Z 34015KT 10SM BKN060 BKN090 BKN250 06/M01 A2996 RMK AO2 SLP147 T00561006

TAF KISP
Valide du 21 à 00h jusqu'au 22 à 00h UTC


202335Z 2100/2124 33013KT P6SM SCT040 BKN060
FM210300 33011KT P6SM SCT100
FM210800 33009KT P6SM FEW250
FM211700 31007KT P6SM SCT250
FM212000 24006KT P6SM FEW150 SCT250



MET'MAP, la Météo Aéronautique d'un coup d'oeil ! - Copyright ORBIFLY Décembre 2007 - Disclaimer

ORBIFLY MET'MAP TEAM :

Programmation & Développement : Alexandra Zaïnal
Conception & Développement : Baudouin d'Aumeries
Co-Programmation & Développement : Marc-Olivier Méhu
Soutien technique & logistique : Manuel Goepfert

Contact : metmap@orbifly.com




SOURCES & CREDITS :

   NOAA       Earth
Advisory